Time;durP1;ratioP1;P1;durP2;ratioP2;P2;SDS_P1;SDS_P2;PMS_P1;PMS_P2;Temp;Humidity;BMP_temperature;BMP_pressure;BME280_temperature;BME280_humidity;BME280_pressure;Samples;Min_cycle;Max_cycle;Signal;HPM_P1;HPM_P2
2022/03/08 00:01:33;;;;;;;11.75;5.72;;;;;;;;;;5010019;28;20389;-74
2022/03/08 00:03:59;;;;;;;11.93;6.22;;;;;;;;;;5010193;28;20052;-74
2022/03/08 00:06:26;;;;;;;14.20;5.88;;;;;;;;;;4993820;28;20041;-74
2022/03/08 00:08:52;;;;;;;14.18;6.03;;;;;;;;;;5009996;28;20038;-74
2022/03/08 00:11:19;;;;;;;11.57;5.95;;;;;;;;;;5010490;28;20052;-74
2022/03/08 00:13:45;;;;;;;12.70;5.90;;;;;;;;;;5027662;28;20046;-74
2022/03/08 00:16:12;;;;;;;12.32;6.00;;;;;;;;;;4993941;28;20042;-74
2022/03/08 00:18:38;;;;;;;13.10;6.25;;;;;;;;;;5010065;28;20106;-74
2022/03/08 00:21:05;;;;;;;12.68;5.75;;;;;;;;;;5009728;28;20073;-74
2022/03/08 00:23:32;;;;;;;11.85;5.90;;;;;;;;;;5027176;28;20120;-74
2022/03/08 00:26:00;;;;;;;12.95;6.07;;;;;;;;;;5009674;28;20555;-75
2022/03/08 00:28:26;;;;;;;12.45;5.70;;;;;;;;;;5027056;28;20383;-74
2022/03/08 00:30:53;;;;;;;10.80;5.40;;;;;;;;;;5009271;28;20516;-74
2022/03/08 00:33:20;;;;;;;12.25;6.20;;;;;;;;;;5009322;28;20047;-74
2022/03/08 00:35:47;;;;;;;13.20;6.38;;;;;;;;;;4993214;28;20049;-74
2022/03/08 00:38:13;;;;;;;11.23;5.80;;;;;;;;;;4993567;28;20061;-74
2022/03/08 00:40:39;;;;;;;14.45;6.45;;;;;;;;;;5009305;28;20049;-74
2022/03/08 00:43:06;;;;;;;12.60;5.95;;;;;;;;;;5009296;28;20449;-75
2022/03/08 00:45:32;;;;;;;13.38;6.13;;;;;;;;;;5026820;28;20073;-74
2022/03/08 00:47:58;;;;;;;12.88;6.43;;;;;;;;;;5009070;28;20038;-74
2022/03/08 00:50:26;;;;;;;15.05;6.00;;;;;;;;;;4993044;28;20072;-74
2022/03/08 00:52:52;;;;;;;12.45;6.47;;;;;;;;;;5009320;28;20054;-74
2022/03/08 00:55:19;;;;;;;14.75;6.43;;;;;;;;;;5010061;28;20561;-74
2022/03/08 00:57:46;;;;;;;13.77;6.18;;;;;;;;;;5009534;28;20045;-75
2022/03/08 01:00:13;;;;;;;17.02;6.80;;;;;;;;;;5009701;28;20145;-75
2022/03/08 01:02:39;;;;;;;13.13;6.35;;;;;;;;;;5009229;28;20045;-75
2022/03/08 01:05:06;;;;;;;15.77;6.20;;;;;;;;;;4993131;28;20057;-75
2022/03/08 01:07:32;;;;;;;12.13;5.95;;;;;;;;;;5009096;28;20034;-75
2022/03/08 01:09:58;;;;;;;15.65;7.00;;;;;;;;;;5009538;28;20541;-75
2022/03/08 01:12:24;;;;;;;13.57;6.38;;;;;;;;;;5009352;28;20448;-75
2022/03/08 01:14:51;;;;;;;15.45;6.63;;;;;;;;;;5009348;28;20486;-75
2022/03/08 01:17:17;;;;;;;15.27;6.63;;;;;;;;;;5009049;28;20052;-75
2022/03/08 01:19:43;;;;;;;15.55;6.80;;;;;;;;;;4992655;28;20077;-75
2022/03/08 01:22:10;;;;;;;14.38;6.88;;;;;;;;;;5026517;28;20465;-75
2022/03/08 01:24:36;;;;;;;15.43;7.10;;;;;;;;;;5008850;28;20044;-75
2022/03/08 01:27:03;;;;;;;14.25;7.20;;;;;;;;;;5026587;28;20483;-75
2022/03/08 01:29:29;;;;;;;13.82;6.40;;;;;;;;;;5009458;28;20494;-75
2022/03/08 01:31:55;;;;;;;15.57;6.55;;;;;;;;;;5009178;28;20144;-75
2022/03/08 01:34:21;;;;;;;13.82;6.60;;;;;;;;;;5009140;28;20057;-75
2022/03/08 01:36:47;;;;;;;14.10;6.80;;;;;;;;;;5026196;28;20494;-75
2022/03/08 01:39:14;;;;;;;14.75;6.97;;;;;;;;;;5011146;28;20094;-74
2022/03/08 01:41:40;;;;;;;14.35;6.85;;;;;;;;;;5011965;28;20596;-74
2022/03/08 01:44:08;;;;;;;13.60;6.80;;;;;;;;;;4995992;28;20045;-74
2022/03/08 01:46:36;;;;;;;15.30;7.22;;;;;;;;;;5012268;28;20109;-74
2022/03/08 01:49:03;;;;;;;15.02;6.90;;;;;;;;;;5029651;28;20045;-74
2022/03/08 01:51:29;;;;;;;13.07;6.80;;;;;;;;;;5012233;28;20555;-75
2022/03/08 01:53:56;;;;;;;15.95;7.40;;;;;;;;;;5012042;28;20041;-74
2022/03/08 01:56:22;;;;;;;15.88;6.85;;;;;;;;;;4995788;28;20041;-75
2022/03/08 01:58:48;;;;;;;14.02;7.13;;;;;;;;;;5012014;28;20396;-75
2022/03/08 02:01:15;;;;;;;15.98;7.30;;;;;;;;;;5029582;28;20034;-75
2022/03/08 02:03:41;;;;;;;15.60;6.75;;;;;;;;;;4995598;28;20049;-75
2022/03/08 02:06:07;;;;;;;13.95;6.95;;;;;;;;;;5011796;28;20048;-75
2022/03/08 02:08:33;;;;;;;14.32;7.10;;;;;;;;;;5013553;28;20119;-75
2022/03/08 02:10:59;;;;;;;14.52;7.05;;;;;;;;;;4992762;28;20042;-75
2022/03/08 02:13:26;;;;;;;17.52;7.25;;;;;;;;;;4992019;28;20044;-75
2022/03/08 02:15:52;;;;;;;14.95;6.78;;;;;;;;;;4975975;28;20050;-75
2022/03/08 02:18:18;;;;;;;17.40;7.65;;;;;;;;;;4992542;28;20502;-75
2022/03/08 02:20:45;;;;;;;16.92;7.47;;;;;;;;;;4992329;28;20053;-75
2022/03/08 02:23:11;;;;;;;16.98;7.85;;;;;;;;;;4991902;28;20038;-75
2022/03/08 02:25:38;;;;;;;17.52;7.68;;;;;;;;;;4991967;28;20121;-76
2022/03/08 02:28:04;;;;;;;16.20;7.97;;;;;;;;;;4992048;28;20121;-75
2022/03/08 02:30:30;;;;;;;16.40;8.27;;;;;;;;;;5009372;28;20045;-75
2022/03/08 02:32:56;;;;;;;15.20;7.88;;;;;;;;;;5009356;28;20042;-75
2022/03/08 02:35:24;;;;;;;15.80;7.88;;;;;;;;;;4991979;28;20611;-75
2022/03/08 02:37:52;;;;;;;17.60;8.23;;;;;;;;;;4991500;28;20046;-75
2022/03/08 02:40:20;;;;;;;16.48;8.20;;;;;;;;;;5009489;28;20046;-75
2022/03/08 02:42:46;;;;;;;17.05;8.18;;;;;;;;;;4991665;28;20052;-73
2022/03/08 02:45:12;;;;;;;17.65;8.50;;;;;;;;;;5008943;28;20050;-75
2022/03/08 02:47:39;;;;;;;20.88;9.65;;;;;;;;;;5009204;28;20046;-75
2022/03/08 02:50:06;;;;;;;17.85;7.85;;;;;;;;;;4991063;28;20487;-75
2022/03/08 02:52:33;;;;;;;20.05;8.90;;;;;;;;;;5006703;28;20103;-75
2022/03/08 02:54:59;;;;;;;18.88;9.07;;;;;;;;;;4992279;28;20459;-75
2022/03/08 02:57:25;;;;;;;20.42;8.98;;;;;;;;;;5007959;28;20514;-74
2022/03/08 02:59:52;;;;;;;17.05;8.05;;;;;;;;;;5009299;28;20483;-74
2022/03/08 03:02:18;;;;;;;18.85;8.85;;;;;;;;;;5005802;28;20045;-74
2022/03/08 03:04:45;;;;;;;19.10;8.55;;;;;;;;;;5026616;28;20068;-74
2022/03/08 03:07:12;;;;;;;18.00;8.52;;;;;;;;;;4994816;28;20521;-75
2022/03/08 03:09:38;;;;;;;16.42;8.13;;;;;;;;;;4994492;28;20128;-74
2022/03/08 03:12:04;;;;;;;20.35;8.75;;;;;;;;;;5011128;28;20106;-74
2022/03/08 03:14:30;;;;;;;16.15;8.45;;;;;;;;;;5011463;28;20390;-74
2022/03/08 03:16:56;;;;;;;16.95;8.15;;;;;;;;;;5011015;28;20045;-74
2022/03/08 03:19:22;;;;;;;21.25;9.73;;;;;;;;;;5028480;28;20097;-74
2022/03/08 03:21:49;;;;;;;18.98;8.65;;;;;;;;;;5028008;28;20034;-74
2022/03/08 03:24:16;;;;;;;17.48;8.20;;;;;;;;;;5028352;28;20037;-74
2022/03/08 03:26:42;;;;;;;19.00;9.35;;;;;;;;;;5028268;28;20052;-75
2022/03/08 03:29:08;;;;;;;19.35;9.40;;;;;;;;;;5011046;28;20041;-74
2022/03/08 03:31:34;;;;;;;17.75;8.80;;;;;;;;;;5028022;28;20048;-74
2022/03/08 03:34:01;;;;;;;18.30;9.27;;;;;;;;;;5010608;28;20046;-74
2022/03/08 03:36:27;;;;;;;20.80;9.68;;;;;;;;;;5010322;28;20045;-75
2022/03/08 03:38:53;;;;;;;19.80;9.38;;;;;;;;;;5027719;28;20057;-75
2022/03/08 03:41:19;;;;;;;23.35;9.60;;;;;;;;;;4994265;28;20049;-75
2022/03/08 03:43:46;;;;;;;20.10;9.93;;;;;;;;;;5010147;28;20124;-74
2022/03/08 03:46:12;;;;;;;22.33;9.75;;;;;;;;;;5028685;28;20029;-74
2022/03/08 03:48:38;;;;;;;25.05;10.93;;;;;;;;;;5027798;28;20054;-76
2022/03/08 03:51:04;;;;;;;20.92;10.80;;;;;;;;;;5007101;28;20049;-74
2022/03/08 03:53:30;;;;;;;22.88;10.40;;;;;;;;;;5006822;28;20052;-74
2022/03/08 03:55:56;;;;;;;21.00;10.13;;;;;;;;;;5006846;28;20046;-74
2022/03/08 03:58:22;;;;;;;21.80;10.73;;;;;;;;;;5008190;28;20042;-74
2022/03/08 04:00:48;;;;;;;21.88;10.13;;;;;;;;;;4991016;28;20077;-74
2022/03/08 04:03:15;;;;;;;23.15;10.88;;;;;;;;;;5007150;28;20113;-74
2022/03/08 04:05:42;;;;;;;21.63;10.65;;;;;;;;;;4990690;28;20050;-74
2022/03/08 04:08:08;;;;;;;21.23;10.45;;;;;;;;;;4990653;28;20076;-74
2022/03/08 04:10:34;;;;;;;20.30;10.20;;;;;;;;;;5006554;28;20041;-75
2022/03/08 04:13:00;;;;;;;22.90;10.75;;;;;;;;;;5007048;28;20128;-74
2022/03/08 04:15:26;;;;;;;22.13;10.70;;;;;;;;;;5008055;28;20560;-76
2022/03/08 04:17:52;;;;;;;20.40;10.45;;;;;;;;;;5007902;28;20042;-76
2022/03/08 04:20:18;;;;;;;20.85;10.90;;;;;;;;;;5007869;28;20049;-76
2022/03/08 04:22:45;;;;;;;20.38;10.32;;;;;;;;;;4989471;28;20073;-76
2022/03/08 04:25:11;;;;;;;21.15;10.45;;;;;;;;;;5006858;28;20493;-76
2022/03/08 04:27:37;;;;;;;22.40;10.52;;;;;;;;;;5006127;28;20042;-76
2022/03/08 04:30:05;;;;;;;20.90;10.88;;;;;;;;;;5006832;28;20042;-76
2022/03/08 04:32:31;;;;;;;21.50;9.75;;;;;;;;;;5006567;28;20449;-76
2022/03/08 04:34:57;;;;;;;21.00;10.23;;;;;;;;;;5006384;28;20103;-76
2022/03/08 04:37:23;;;;;;;19.85;10.25;;;;;;;;;;5006471;28;20505;-76
2022/03/08 04:39:49;;;;;;;22.98;10.23;;;;;;;;;;4989587;28;20061;-76
2022/03/08 04:42:15;;;;;;;19.77;10.63;;;;;;;;;;4990475;28;20414;-76
2022/03/08 04:44:41;;;;;;;20.35;10.75;;;;;;;;;;5005657;28;20098;-76
2022/03/08 04:47:08;;;;;;;20.40;10.02;;;;;;;;;;5007780;28;20038;-76
2022/03/08 04:49:34;;;;;;;26.95;11.38;;;;;;;;;;5007188;28;20046;-76
2022/03/08 04:52:00;;;;;;;19.88;9.65;;;;;;;;;;5022162;28;20045;-76
2022/03/08 04:54:26;;;;;;;20.65;9.73;;;;;;;;;;5009600;28;20045;-76
2022/03/08 04:56:52;;;;;;;22.25;10.77;;;;;;;;;;5009513;28;20045;-76
2022/03/08 04:59:18;;;;;;;21.67;10.35;;;;;;;;;;5009318;28;20430;-76
2022/03/08 05:01:44;;;;;;;22.60;11.10;;;;;;;;;;5001280;28;20029;-75
2022/03/08 05:04:10;;;;;;;21.15;10.50;;;;;;;;;;5008535;28;20546;-76
2022/03/08 05:06:36;;;;;;;20.60;9.07;;;;;;;;;;5007287;28;20104;-76
2022/03/08 05:09:03;;;;;;;20.90;10.50;;;;;;;;;;5009239;28;20049;-76
2022/03/08 05:11:29;;;;;;;24.58;11.20;;;;;;;;;;4993040;28;20049;-76
2022/03/08 05:13:55;;;;;;;23.58;11.10;;;;;;;;;;5028811;28;20523;-76
2022/03/08 05:16:22;;;;;;;20.85;9.93;;;;;;;;;;5030366;28;20038;-76
2022/03/08 05:18:48;;;;;;;21.95;10.45;;;;;;;;;;5012421;28;20045;-76
2022/03/08 05:21:14;;;;;;;23.30;11.50;;;;;;;;;;5012562;28;20052;-76
2022/03/08 05:23:40;;;;;;;21.30;10.57;;;;;;;;;;5029390;28;20085;-76
2022/03/08 05:26:06;;;;;;;20.90;10.32;;;;;;;;;;5012949;28;20474;-76
2022/03/08 05:28:32;;;;;;;24.13;10.30;;;;;;;;;;5012547;28;20041;-76
2022/03/08 05:30:59;;;;;;;21.23;9.48;;;;;;;;;;5029696;28;20045;-76
2022/03/08 05:33:25;;;;;;;22.95;10.68;;;;;;;;;;5012577;28;20042;-75
2022/03/08 05:35:51;;;;;;;22.52;10.82;;;;;;;;;;4995591;28;20037;-76
2022/03/08 05:38:17;;;;;;;21.95;10.98;;;;;;;;;;4996088;28;20113;-76
2022/03/08 05:40:44;;;;;;;22.63;11.68;;;;;;;;;;5011984;28;20049;-76
2022/03/08 05:43:10;;;;;;;21.42;10.93;;;;;;;;;;5012342;28;20438;-76
2022/03/08 05:45:36;;;;;;;21.42;10.38;;;;;;;;;;4995882;28;20045;-76
2022/03/08 05:48:02;;;;;;;23.67;11.00;;;;;;;;;;5012330;28;20045;-75
2022/03/08 05:50:29;;;;;;;22.88;10.85;;;;;;;;;;5029800;28;20087;-76
2022/03/08 05:52:55;;;;;;;22.00;10.38;;;;;;;;;;5029871;28;20045;-76
2022/03/08 05:55:21;;;;;;;23.90;11.43;;;;;;;;;;5012502;28;20045;-76
2022/03/08 05:57:47;;;;;;;23.95;11.02;;;;;;;;;;5012097;28;20045;-76
2022/03/08 06:00:13;;;;;;;21.13;10.43;;;;;;;;;;5012307;28;20048;-75
2022/03/08 06:02:40;;;;;;;26.25;11.23;;;;;;;;;;5011699;28;20045;-76
2022/03/08 06:05:06;;;;;;;23.27;10.73;;;;;;;;;;5011774;28;20124;-76
2022/03/08 06:07:32;;;;;;;25.35;11.88;;;;;;;;;;5029938;28;20033;-75
2022/03/08 06:09:59;;;;;;;24.38;11.63;;;;;;;;;;5029647;28;20387;-74
2022/03/08 06:12:26;;;;;;;26.77;11.63;;;;;;;;;;5029969;28;20113;-75
2022/03/08 06:14:52;;;;;;;22.90;11.43;;;;;;;;;;5028944;28;20077;-75
2022/03/08 06:17:18;;;;;;;24.20;11.73;;;;;;;;;;5011666;28;20041;-75
2022/03/08 06:19:44;;;;;;;23.17;11.70;;;;;;;;;;5011198;28;20048;-75
2022/03/08 06:22:10;;;;;;;25.83;12.10;;;;;;;;;;5030211;28;20037;-75
2022/03/08 06:24:36;;;;;;;25.98;12.18;;;;;;;;;;5009922;28;20042;-75
2022/03/08 06:27:02;;;;;;;22.88;11.32;;;;;;;;;;5029508;28;20077;-75
2022/03/08 06:29:28;;;;;;;22.67;11.45;;;;;;;;;;5011937;28;20045;-75
2022/03/08 06:31:54;;;;;;;21.13;11.38;;;;;;;;;;5011246;28;20034;-74
2022/03/08 06:34:20;;;;;;;22.00;11.32;;;;;;;;;;5011411;28;20120;-75
2022/03/08 06:36:46;;;;;;;24.20;11.23;;;;;;;;;;5011303;28;20125;-75
2022/03/08 06:39:13;;;;;;;21.27;10.73;;;;;;;;;;5011668;28;20106;-75
2022/03/08 06:41:39;;;;;;;20.40;11.45;;;;;;;;;;4994640;28;20120;-75
2022/03/08 06:44:05;;;;;;;22.15;10.65;;;;;;;;;;4994807;28;20104;-75
2022/03/08 06:46:31;;;;;;;19.50;9.57;;;;;;;;;;5028861;28;20056;-76
2022/03/08 06:48:58;;;;;;;18.98;10.48;;;;;;;;;;5011608;28;20554;-75
2022/03/08 06:51:24;;;;;;;18.45;10.15;;;;;;;;;;5011455;28;20128;-76
2022/03/08 06:53:50;;;;;;;18.02;9.75;;;;;;;;;;5011295;28;20482;-76
2022/03/08 06:56:16;;;;;;;16.27;10.00;;;;;;;;;;5028969;28;20113;-75
2022/03/08 06:58:42;;;;;;;18.30;10.25;;;;;;;;;;5028624;28;20041;-75
2022/03/08 07:01:08;;;;;;;17.30;9.73;;;;;;;;;;4995158;28;20120;-74
2022/03/08 07:03:34;;;;;;;24.73;10.35;;;;;;;;;;5028435;28;20475;-75
2022/03/08 07:06:00;;;;;;;19.50;11.30;;;;;;;;;;5010989;28;20510;-76
2022/03/08 07:08:26;;;;;;;16.70;9.07;;;;;;;;;;4994897;28;20033;-76
2022/03/08 07:10:52;;;;;;;16.67;10.00;;;;;;;;;;5010382;28;20041;-75
2022/03/08 07:13:19;;;;;;;17.58;9.13;;;;;;;;;;5010982;28;20081;-76
2022/03/08 07:15:45;;;;;;;17.85;10.63;;;;;;;;;;5028535;28;20368;-75
2022/03/08 07:18:11;;;;;;;16.48;9.50;;;;;;;;;;5028906;28;20041;-75
2022/03/08 07:20:37;;;;;;;19.83;9.55;;;;;;;;;;5010589;28;20436;-75
2022/03/08 07:23:03;;;;;;;16.33;10.13;;;;;;;;;;5028895;28;20053;-75
2022/03/08 07:25:29;;;;;;;17.83;9.88;;;;;;;;;;5028861;28;20049;-75
2022/03/08 07:27:55;;;;;;;16.23;9.15;;;;;;;;;;5028175;28;20056;-76
2022/03/08 07:30:21;;;;;;;15.35;9.07;;;;;;;;;;5010800;28;20105;-76
2022/03/08 07:32:49;;;;;;;16.58;10.25;;;;;;;;;;5027850;28;20041;-76
2022/03/08 07:35:15;;;;;;;16.40;9.93;;;;;;;;;;4994231;28;20041;-76
2022/03/08 07:37:41;;;;;;;16.75;10.05;;;;;;;;;;5010144;28;20478;-76
2022/03/08 07:40:08;;;;;;;14.75;9.38;;;;;;;;;;5010271;28;20058;-76
2022/03/08 07:42:34;;;;;;;15.45;9.77;;;;;;;;;;5010462;28;20162;-76
2022/03/08 07:45:00;;;;;;;15.60;9.85;;;;;;;;;;5010205;28;20041;-75
2022/03/08 07:47:26;;;;;;;15.88;9.73;;;;;;;;;;4993858;28;20045;-75
2022/03/08 07:49:53;;;;;;;17.35;9.48;;;;;;;;;;5027662;28;20042;-75
2022/03/08 07:52:19;;;;;;;14.23;9.68;;;;;;;;;;5010476;28;20541;-75
2022/03/08 07:54:45;;;;;;;14.45;9.93;;;;;;;;;;5009919;28;20098;-76
2022/03/08 07:57:11;;;;;;;16.73;10.23;;;;;;;;;;5010091;28;20042;-75
2022/03/08 07:59:37;;;;;;;14.38;8.70;;;;;;;;;;5009879;28;20060;-75
2022/03/08 08:02:03;;;;;;;14.88;8.80;;;;;;;;;;5010101;28;20163;-75
2022/03/08 08:04:29;;;;;;;17.55;8.95;;;;;;;;;;5028129;28;20498;-75
2022/03/08 08:06:55;;;;;;;14.00;9.10;;;;;;;;;;5010262;28;20506;-74
2022/03/08 08:09:22;;;;;;;15.82;9.98;;;;;;;;;;4994217;28;20122;-75
2022/03/08 08:11:49;;;;;;;16.20;8.73;;;;;;;;;;5027433;28;20042;-74
2022/03/08 08:14:16;;;;;;;15.27;8.75;;;;;;;;;;5009943;28;20045;-74
2022/03/08 08:16:42;;;;;;;15.02;8.82;;;;;;;;;;5009357;28;20045;-74
2022/03/08 08:19:08;;;;;;;15.23;9.68;;;;;;;;;;5009454;28;20102;-74
2022/03/08 08:21:35;;;;;;;14.98;8.70;;;;;;;;;;5010085;28;20483;-75
2022/03/08 08:24:01;;;;;;;14.27;8.82;;;;;;;;;;4993573;28;20045;-73
2022/03/08 08:26:27;;;;;;;16.70;9.18;;;;;;;;;;5010305;28;20517;-74
2022/03/08 08:28:53;;;;;;;14.02;9.23;;;;;;;;;;5009536;28;20042;-74
2022/03/08 08:31:19;;;;;;;15.95;8.63;;;;;;;;;;5027923;28;20041;-74
2022/03/08 08:33:45;;;;;;;12.40;7.80;;;;;;;;;;5009214;28;20045;-74
2022/03/08 08:36:12;;;;;;;14.23;7.93;;;;;;;;;;5009358;28;20049;-74
2022/03/08 08:38:39;;;;;;;11.93;7.53;;;;;;;;;;5009318;28;20088;-74
2022/03/08 08:41:05;;;;;;;11.55;7.90;;;;;;;;;;5009523;28;20124;-75
2022/03/08 08:43:31;;;;;;;11.43;6.45;;;;;;;;;;5009704;28;20081;-74
2022/03/08 08:45:57;;;;;;;11.13;7.55;;;;;;;;;;5009157;28;20034;-74
2022/03/08 08:48:24;;;;;;;11.38;7.40;;;;;;;;;;5008956;28;20052;-77
2022/03/08 08:50:50;;;;;;;12.07;7.97;;;;;;;;;;5027243;28;20120;-75
2022/03/08 08:53:16;;;;;;;12.40;7.35;;;;;;;;;;5009492;28;20105;-75
2022/03/08 08:55:42;;;;;;;10.00;6.55;;;;;;;;;;5009030;28;20042;-75
2022/03/08 08:58:08;;;;;;;8.88;6.57;;;;;;;;;;5009141;28;20052;-75
2022/03/08 09:00:34;;;;;;;10.68;7.07;;;;;;;;;;5009517;28;20053;-75
2022/03/08 09:03:01;;;;;;;12.55;6.45;;;;;;;;;;5008847;28;20050;-75
2022/03/08 09:05:28;;;;;;;9.27;6.57;;;;;;;;;;4993783;28;20052;-75
2022/03/08 09:07:54;;;;;;;9.68;6.43;;;;;;;;;;5008993;28;20041;-74
2022/03/08 09:10:23;;;;;;;9.13;6.07;;;;;;;;;;5009533;28;20042;-75
2022/03/08 09:12:51;;;;;;;9.23;5.95;;;;;;;;;;5008578;28;20057;-78
2022/03/08 09:15:18;;;;;;;9.30;6.30;;;;;;;;;;5008796;28;20077;-74
2022/03/08 09:17:44;;;;;;;9.65;6.38;;;;;;;;;;5008606;28;20106;-74
2022/03/08 09:20:10;;;;;;;9.82;6.05;;;;;;;;;;5027022;28;20049;-74
2022/03/08 09:22:37;;;;;;;10.10;6.10;;;;;;;;;;4992467;28;20529;-75
2022/03/08 09:25:03;;;;;;;8.18;6.03;;;;;;;;;;5026623;28;20207;-75
2022/03/08 09:27:30;;;;;;;8.18;6.22;;;;;;;;;;5009231;28;20479;-75
2022/03/08 09:29:56;;;;;;;7.80;5.90;;;;;;;;;;5026469;28;20033;-74
2022/03/08 09:32:23;;;;;;;8.32;6.00;;;;;;;;;;5009088;28;20493;-73
2022/03/08 09:34:49;;;;;;;8.35;6.15;;;;;;;;;;4992537;28;20049;-73
2022/03/08 09:37:15;;;;;;;7.82;6.53;;;;;;;;;;5009058;28;20555;-74
2022/03/08 09:39:41;;;;;;;8.13;6.32;;;;;;;;;;5008641;28;20080;-74
2022/03/08 09:42:08;;;;;;;8.32;6.13;;;;;;;;;;5008944;28;20573;-73
2022/03/08 09:44:34;;;;;;;9.50;5.82;;;;;;;;;;4992601;28;20098;-77
2022/03/08 09:47:00;;;;;;;8.98;6.68;;;;;;;;;;5008381;28;20037;-74
2022/03/08 09:49:26;;;;;;;10.82;6.55;;;;;;;;;;5026462;28;20041;-75
2022/03/08 09:51:53;;;;;;;7.32;5.57;;;;;;;;;;4992323;28;20042;-75
2022/03/08 09:54:19;;;;;;;8.40;6.20;;;;;;;;;;5009170;28;20095;-74
2022/03/08 09:56:45;;;;;;;8.63;6.10;;;;;;;;;;5008552;28;20049;-76
2022/03/08 09:59:15;;;;;;;7.65;6.05;;;;;;;;;;5009657;28;20106;-73
2022/03/08 10:01:41;;;;;;;10.95;6.20;;;;;;;;;;5012256;28;20041;-76
2022/03/08 10:04:07;;;;;;;9.70;5.97;;;;;;;;;;4995709;28;20510;-75
2022/03/08 10:06:41;;;;;;;8.60;6.30;;;;;;;;;;5012049;28;20063;-74
2022/03/08 10:09:15;;;;;;;9.02;6.10;;;;;;;;;;5029553;28;20094;-74
2022/03/08 10:11:41;;;;;;;8.55;6.03;;;;;;;;;;5012101;28;20038;-75
2022/03/08 10:14:07;;;;;;;8.68;5.55;;;;;;;;;;5011663;28;20049;-75
2022/03/08 10:16:42;;;;;;;8.32;5.60;;;;;;;;;;5012000;28;20398;-75
2022/03/08 10:19:09;;;;;;;8.55;5.68;;;;;;;;;;4980790;28;20486;-75
2022/03/08 10:21:36;;;;;;;6.80;5.10;;;;;;;;;;5011641;28;20092;-75
2022/03/08 10:24:13;;;;;;;7.80;5.63;;;;;;;;;;5011386;28;20045;-74
2022/03/08 10:26:52;;;;;;;7.43;5.10;;;;;;;;;;5028964;28;20037;-76
2022/03/08 10:29:23;;;;;;;7.63;5.25;;;;;;;;;;5012206;28;20545;-74
2022/03/08 10:31:49;;;;;;;7.95;5.47;;;;;;;;;;5011829;28;20085;-73
2022/03/08 10:34:17;;;;;;;7.55;5.45;;;;;;;;;;5029318;28;20052;-73
2022/03/08 10:37:07;;;;;;;8.13;5.55;;;;;;;;;;5011475;28;20486;-73
2022/03/08 10:39:33;;;;;;;7.60;5.60;;;;;;;;;;4996245;28;20522;-73
2022/03/08 10:42:00;;;;;;;9.60;5.78;;;;;;;;;;4989805;28;20089;-74
2022/03/08 10:44:41;;;;;;;8.18;5.22;;;;;;;;;;4988235;28;20120;-77
2022/03/08 10:47:11;;;;;;;9.23;5.32;;;;;;;;;;4988213;28;20046;-74
2022/03/08 10:49:54;;;;;;;7.32;5.72;;;;;;;;;;4989511;28;20122;-75
2022/03/08 10:52:30;;;;;;;8.48;5.78;;;;;;;;;;4972306;28;20043;-74
2022/03/08 10:55:13;;;;;;;7.50;5.60;;;;;;;;;;4988743;28;20043;-73
2022/03/08 10:57:53;;;;;;;7.07;5.72;;;;;;;;;;4988289;28;20042;-74
2022/03/08 11:00:20;;;;;;;7.70;5.43;;;;;;;;;;4990000;28;20091;-76
2022/03/08 11:02:56;;;;;;;7.90;5.85;;;;;;;;;;4988249;28;20042;-72
2022/03/08 11:05:24;;;;;;;8.23;5.38;;;;;;;;;;4988126;28;20046;-73
2022/03/08 11:07:51;;;;;;;7.10;5.40;;;;;;;;;;4987904;28;20042;-73
2022/03/08 11:10:18;;;;;;;7.57;5.47;;;;;;;;;;4987584;28;20047;-73
2022/03/08 11:12:44;;;;;;;6.55;5.40;;;;;;;;;;4972153;28;20142;-73
2022/03/08 11:15:13;;;;;;;7.43;5.35;;;;;;;;;;4972061;28;20513;-75
2022/03/08 11:17:40;;;;;;;7.78;5.25;;;;;;;;;;4989271;28;20038;-76
2022/03/08 11:20:08;;;;;;;6.85;5.68;;;;;;;;;;4989644;28;20046;-74
2022/03/08 11:22:35;;;;;;;7.32;5.55;;;;;;;;;;4972199;28;20046;-75
2022/03/08 11:25:01;;;;;;;11.23;5.60;;;;;;;;;;4987902;28;20093;-73
2022/03/08 11:27:27;;;;;;;9.02;5.72;;;;;;;;;;4988146;28;20049;-73
2022/03/08 11:29:54;;;;;;;6.97;5.00;;;;;;;;;;4989327;28;20039;-74
2022/03/08 11:32:40;;;;;;;8.27;5.10;;;;;;;;;;4987711;28;20053;-73
2022/03/08 11:35:06;;;;;;;;;;;;;;;;;;4988715;28;20061;-78
2022/03/08 11:37:34;;;;;;;7.18;5.13;;;;;;;;;;4987746;28;19921;-74
2022/03/08 11:40:10;;;;;;;6.35;5.13;;;;;;;;;;4999557;28;20046;-76
2022/03/08 11:42:39;;;;;;;8.73;5.80;;;;;;;;;;5007079;28;20045;-76
2022/03/08 11:45:09;;;;;;;9.18;5.57;;;;;;;;;;5007275;28;20054;-74
2022/03/08 11:47:40;;;;;;;6.90;5.20;;;;;;;;;;5008467;28;20034;-76
2022/03/08 11:50:07;;;;;;;7.75;5.15;;;;;;;;;;5007233;28;20060;-77
2022/03/08 11:52:36;;;;;;;7.13;4.72;;;;;;;;;;5006876;28;20124;-73
2022/03/08 11:55:08;;;;;;;5.97;4.45;;;;;;;;;;5007046;28;20068;-77
2022/03/08 11:57:54;;;;;;;8.68;5.07;;;;;;;;;;4990913;28;20140;-74
2022/03/08 12:00:23;;;;;;;7.32;5.10;;;;;;;;;;5008070;28;20041;-73
2022/03/08 12:02:53;;;;;;;8.10;4.43;;;;;;;;;;5008328;28;20548;-74
2022/03/08 12:05:38;;;;;;;7.60;4.57;;;;;;;;;;4990808;28;20041;-78
2022/03/08 12:08:23;;;;;;;6.47;4.50;;;;;;;;;;5007083;28;20190;-75
2022/03/08 12:10:50;;;;;;;8.95;4.32;;;;;;;;;;5006752;28;20038;-74
2022/03/08 12:13:16;;;;;;;9.23;4.88;;;;;;;;;;5008094;28;20561;-74
2022/03/08 12:16:01;;;;;;;7.35;4.72;;;;;;;;;;5006973;28;20371;-75
2022/03/08 12:18:34;;;;;;;7.35;5.00;;;;;;;;;;4990190;28;20053;-76
2022/03/08 12:21:21;;;;;;;6.35;4.55;;;;;;;;;;5008186;28;20049;-76
2022/03/08 12:23:52;;;;;;;6.68;4.90;;;;;;;;;;5005484;28;20514;-74
2022/03/08 12:26:50;;;;;;;9.48;5.10;;;;;;;;;;5006782;28;20120;-77
2022/03/08 12:29:24;;;;;;;6.53;4.55;;;;;;;;;;4964358;28;20046;-76
2022/03/08 12:32:05;;;;;;;9.55;4.38;;;;;;;;;;5006406;28;20124;-73
2022/03/08 12:34:38;;;;;;;6.50;4.38;;;;;;;;;;5006435;28;20137;-73
2022/03/08 12:37:04;;;;;;;5.78;4.30;;;;;;;;;;5007592;28;20052;-74
2022/03/08 12:39:49;;;;;;;6.85;4.20;;;;;;;;;;4989404;28;20045;-73
2022/03/08 12:42:20;;;;;;;5.18;3.75;;;;;;;;;;5006866;28;20486;-73
2022/03/08 12:44:58;;;;;;;6.55;4.30;;;;;;;;;;5007331;28;20120;-76
2022/03/08 12:47:25;;;;;;;6.88;4.60;;;;;;;;;;5006430;28;20041;-77
2022/03/08 12:49:51;;;;;;;8.05;4.50;;;;;;;;;;5007564;28;20077;-74
2022/03/08 12:52:18;;;;;;;9.10;4.18;;;;;;;;;;5007986;28;20038;-77
2022/03/08 12:54:45;;;;;;;8.43;3.92;;;;;;;;;;5006186;28;20042;-79
2022/03/08 12:57:11;;;;;;;7.80;3.97;;;;;;;;;;5006300;28;20045;-75
2022/03/08 12:59:45;;;;;;;7.05;4.10;;;;;;;;;;4989721;28;20042;-78
2022/03/08 13:02:11;;;;;;;6.22;4.40;;;;;;;;;;5006488;28;20073;-75
2022/03/08 13:04:37;;;;;;;6.55;4.53;;;;;;;;;;5007320;28;20513;-74
2022/03/08 13:07:11;;;;;;;5.97;4.35;;;;;;;;;;5005792;28;20081;-76
2022/03/08 13:10:00;;;;;;;9.00;4.57;;;;;;;;;;5006022;28;20081;-74
2022/03/08 13:12:28;;;;;;;6.90;4.75;;;;;;;;;;4996011;28;20106;-73
2022/03/08 13:15:06;;;;;;;6.97;4.40;;;;;;;;;;5005806;28;20103;-76
2022/03/08 13:17:32;;;;;;;8.38;4.57;;;;;;;;;;5006179;28;20046;-75
2022/03/08 13:19:58;;;;;;;9.52;4.45;;;;;;;;;;5006005;28;20376;-75
2022/03/08 13:22:24;;;;;;;7.60;4.45;;;;;;;;;;5007071;28;20124;-75
2022/03/08 13:25:19;;;;;;;6.32;4.00;;;;;;;;;;5005621;28;20049;-72
2022/03/08 13:27:52;;;;;;;7.07;4.40;;;;;;;;;;5003007;28;20604;-75
2022/03/08 13:30:20;;;;;;;9.10;4.40;;;;;;;;;;5006217;28;20405;-74
2022/03/08 13:32:46;;;;;;;6.47;4.15;;;;;;;;;;5005626;28;20402;-75
2022/03/08 13:35:12;;;;;;;6.50;3.78;;;;;;;;;;5008192;28;20099;-73
2022/03/08 13:37:46;;;;;;;6.70;3.92;;;;;;;;;;5009249;28;20498;-77
2022/03/08 13:40:24;;;;;;;9.38;3.83;;;;;;;;;;5009152;28;20066;-76
2022/03/08 13:42:50;;;;;;;7.68;3.88;;;;;;;;;;5009275;28;20056;-75
2022/03/08 13:45:16;;;;;;;8.07;4.13;;;;;;;;;;5009444;28;20057;-77
2022/03/08 13:47:42;;;;;;;7.07;3.42;;;;;;;;;;5008932;28;20375;-72
2022/03/08 13:50:08;;;;;;;6.85;3.42;;;;;;;;;;5010269;28;20387;-77
2022/03/08 13:52:35;;;;;;;7.00;3.75;;;;;;;;;;5009111;28;20556;-75
2022/03/08 13:55:01;;;;;;;6.15;3.88;;;;;;;;;;5010226;28;20045;-75
2022/03/08 13:57:27;;;;;;;7.15;3.90;;;;;;;;;;5010213;28;20082;-74
2022/03/08 13:59:53;;;;;;;6.85;4.00;;;;;;;;;;5010010;28;20038;-76
2022/03/08 14:02:21;;;;;;;6.40;3.92;;;;;;;;;;5010112;28;20080;-73
2022/03/08 14:04:47;;;;;;;7.93;4.03;;;;;;;;;;5009692;28;20038;-74
2022/03/08 14:07:20;;;;;;;8.82;3.92;;;;;;;;;;5009137;28;20653;-73
2022/03/08 14:10:00;;;;;;;10.50;4.30;;;;;;;;;;5008130;28;20121;-74
2022/03/08 14:12:41;;;;;;;7.13;3.63;;;;;;;;;;5010185;28;20069;-74
2022/03/08 14:15:08;;;;;;;6.80;4.00;;;;;;;;;;5008798;28;20050;-75
2022/03/08 14:17:34;;;;;;;9.68;4.35;;;;;;;;;;5008655;28;20091;-73
2022/03/08 14:20:12;;;;;;;7.55;4.13;;;;;;;;;;4991935;28;20046;-74
2022/03/08 14:22:38;;;;;;;5.82;3.63;;;;;;;;;;5009691;28;20042;-74
2022/03/08 14:25:04;;;;;;;6.45;3.83;;;;;;;;;;5008591;28;20479;-76
2022/03/08 14:27:30;;;;;;;7.13;3.80;;;;;;;;;;5008359;28;20034;-74
2022/03/08 14:30:01;;;;;;;8.77;3.55;;;;;;;;;;5009633;28;20038;-77
2022/03/08 14:32:31;;;;;;;7.95;3.67;;;;;;;;;;5009864;28;20030;-75
2022/03/08 14:35:08;;;;;;;6.72;3.20;;;;;;;;;;5009256;28;20046;-73